createdAt,value
2018-03-30T00:02:00.657Z,3.80
2018-03-30T00:04:29.451Z,4.27
2018-03-30T00:06:57.479Z,3.83
2018-03-30T00:09:37.384Z,3.80
2018-03-30T00:12:05.432Z,2.97
2018-03-30T00:14:34.255Z,3.63
2018-03-30T00:17:02.291Z,4.17
2018-03-30T00:19:30.420Z,4.27
2018-03-30T00:21:58.584Z,4.00
2018-03-30T00:24:26.775Z,4.07
2018-03-30T00:26:54.807Z,3.70
2018-03-30T00:29:23.616Z,3.93
2018-03-30T00:31:51.648Z,3.97
2018-03-30T00:34:19.676Z,3.23
2018-03-30T00:36:47.724Z,3.37
2018-03-30T00:39:15.772Z,3.20
2018-03-30T00:41:44.569Z,3.17
2018-03-30T00:44:13.366Z,2.70
2018-03-30T00:46:41.400Z,2.40
2018-03-30T00:49:09.431Z,2.63
2018-03-30T00:51:37.499Z,2.93
2018-03-30T00:54:05.522Z,2.60
2018-03-30T00:56:33.540Z,2.70
2018-03-30T00:59:01.616Z,100.83
2018-03-30T01:01:29.693Z,3.70
2018-03-30T01:03:57.700Z,3.53
2018-03-30T01:06:25.754Z,8.63
2018-03-30T01:08:53.793Z,2.40
2018-03-30T01:11:21.825Z,2.20
2018-03-30T01:13:49.876Z,2.80
2018-03-30T01:16:17.969Z,2.93
2018-03-30T01:18:45.958Z,2.90
2018-03-30T01:21:13.983Z,3.10
2018-03-30T01:23:42.027Z,3.27
2018-03-30T01:26:10.051Z,2.37
2018-03-30T01:28:38.847Z,3.10
2018-03-30T01:31:07.660Z,2.63
2018-03-30T01:33:35.688Z,3.03
2018-03-30T01:36:03.713Z,3.60
2018-03-30T01:38:31.754Z,3.70
2018-03-30T01:40:59.799Z,4.17
2018-03-30T01:43:27.835Z,3.70
2018-03-30T01:45:55.882Z,4.27
2018-03-30T01:48:23.904Z,3.97
2018-03-30T01:50:51.932Z,3.60
2018-03-30T01:53:19.992Z,3.83
2018-03-30T01:55:48.015Z,3.80
2018-03-30T01:58:16.038Z,3.50
2018-03-30T02:00:44.083Z,3.93
2018-03-30T02:03:12.107Z,3.50
2018-03-30T02:05:40.140Z,4.10
2018-03-30T02:11:02.159Z,4.07
2018-03-30T02:13:30.194Z,3.77
2018-03-30T02:15:58.291Z,3.47
2018-03-30T02:18:27.040Z,3.23
2018-03-30T02:20:55.079Z,3.73
2018-03-30T02:23:23.122Z,3.30
2018-03-30T02:25:51.157Z,3.70
2018-03-30T02:28:19.178Z,5.80
2018-03-30T02:30:47.244Z,3.90
2018-03-30T02:33:15.272Z,2.93
2018-03-30T02:35:43.307Z,3.40
2018-03-30T02:38:11.344Z,3.73
2018-03-30T02:40:39.403Z,3.43
2018-03-30T02:43:07.435Z,3.43
2018-03-30T02:45:35.471Z,3.63
2018-03-30T02:48:03.524Z,3.57
2018-03-30T02:50:31.616Z,2.93
2018-03-30T02:52:59.664Z,3.63
2018-03-30T02:55:27.716Z,3.67
2018-03-30T02:57:55.908Z,3.20
2018-03-30T03:00:23.927Z,3.60
2018-03-30T03:02:51.959Z,2.87
2018-03-30T03:05:20.000Z,3.43
2018-03-30T03:07:48.037Z,4.00
2018-03-30T03:10:16.067Z,3.00
2018-03-30T03:12:44.112Z,3.77
2018-03-30T03:15:12.160Z,3.60
2018-03-30T03:17:40.191Z,3.37
2018-03-30T03:20:08.229Z,3.23
2018-03-30T03:22:36.267Z,3.43
2018-03-30T03:25:04.312Z,3.70
2018-03-30T03:27:32.335Z,3.47
2018-03-30T03:30:00.386Z,3.57
2018-03-30T03:32:28.417Z,3.30
2018-03-30T03:34:56.443Z,3.07
2018-03-30T03:37:24.499Z,3.50
2018-03-30T03:39:52.535Z,4.23
2018-03-30T03:42:20.567Z,4.13
2018-03-30T03:44:48.617Z,3.57
2018-03-30T03:47:17.410Z,4.20
2018-03-30T03:49:45.446Z,4.10
2018-03-30T03:52:13.488Z,3.30
2018-03-30T03:54:41.516Z,3.87
2018-03-30T03:57:09.559Z,3.70
2018-03-30T03:59:37.608Z,3.40
2018-03-30T04:02:05.645Z,3.53
2018-03-30T04:04:34.435Z,4.00
2018-03-30T04:07:03.263Z,3.80
2018-03-30T04:09:31.312Z,3.20
2018-03-30T04:11:59.343Z,3.60
2018-03-30T04:14:28.152Z,3.27
2018-03-30T04:16:56.951Z,3.90
2018-03-30T04:19:24.983Z,3.77
2018-03-30T04:21:53.169Z,8.63
2018-03-30T04:24:21.187Z,3.80
2018-03-30T04:26:49.223Z,3.87
2018-03-30T04:29:17.271Z,4.10
2018-03-30T04:31:45.320Z,4.30
2018-03-30T04:34:13.351Z,4.60
2018-03-30T04:36:42.168Z,3.90
2018-03-30T04:39:10.187Z,4.23
2018-03-30T04:41:38.243Z,41.20
2018-03-30T04:44:06.288Z,27.87
2018-03-30T04:46:34.322Z,6.60
2018-03-30T04:49:03.146Z,5.40
2018-03-30T04:51:31.183Z,5.73
2018-03-30T04:53:59.214Z,93.50
2018-03-30T04:56:27.269Z,61.10
2018-03-30T04:58:55.316Z,33.57
2018-03-30T05:01:23.351Z,38.93
2018-03-30T05:03:51.424Z,9.93
2018-03-30T05:06:19.499Z,42.27
2018-03-30T05:08:48.299Z,21.50
2018-03-30T05:11:16.492Z,9.23
2018-03-30T05:13:44.523Z,9.30
2018-03-30T05:16:12.556Z,8.73
2018-03-30T05:18:40.627Z,11.43
2018-03-30T05:21:08.665Z,18.13
2018-03-30T05:23:37.470Z,7.63
2018-03-30T05:26:05.502Z,8.53
2018-03-30T05:28:33.535Z,7.57
2018-03-30T05:31:01.633Z,6.00
2018-03-30T05:33:29.639Z,5.93
2018-03-30T05:35:57.663Z,9.67
2018-03-30T05:38:25.696Z,5.60
2018-03-30T05:40:53.791Z,7.60
2018-03-30T05:43:21.827Z,5.50
2018-03-30T05:45:50.628Z,5.37
2018-03-30T05:48:18.670Z,5.43
2018-03-30T05:50:46.707Z,6.47
2018-03-30T05:53:14.795Z,6.30
2018-03-30T05:55:42.838Z,6.90
2018-03-30T05:58:10.863Z,6.70
2018-03-30T06:00:39.685Z,6.93
2018-03-30T06:03:07.711Z,6.73
2018-03-30T06:05:35.743Z,6.30
2018-03-30T06:08:03.804Z,5.97
2018-03-30T06:10:31.820Z,6.63
2018-03-30T06:12:59.851Z,7.03
2018-03-30T06:15:27.910Z,6.20
2018-03-30T06:17:55.944Z,6.50
2018-03-30T06:20:23.984Z,4.97
2018-03-30T06:22:52.031Z,6.97
2018-03-30T06:25:20.086Z,8.13
2018-03-30T06:27:48.111Z,7.50
2018-03-30T06:30:16.145Z,6.07
2018-03-30T06:32:44.259Z,6.73
2018-03-30T06:35:12.297Z,6.67
2018-03-30T06:37:40.415Z,6.53
2018-03-30T06:40:08.455Z,7.20
2018-03-30T06:42:36.487Z,7.43
2018-03-30T06:45:04.615Z,7.43
2018-03-30T06:47:32.655Z,8.43
2018-03-30T06:50:00.698Z,7.03
2018-03-30T06:52:29.519Z,9.03
2018-03-30T06:54:57.560Z,11.67
2018-03-30T06:57:25.592Z,10.73
2018-03-30T06:59:53.643Z,14.47
2018-03-30T07:02:21.686Z,13.67
2018-03-30T07:04:49.719Z,12.77
2018-03-30T07:07:17.774Z,15.20
2018-03-30T07:09:45.815Z,13.30
2018-03-30T07:12:13.843Z,13.97
2018-03-30T07:14:42.039Z,12.33
2018-03-30T07:17:10.080Z,13.40
2018-03-30T07:19:38.132Z,17.63
2018-03-30T07:22:06.191Z,21.30
2018-03-30T07:24:34.232Z,26.63
2018-03-30T07:27:02.263Z,21.40
2018-03-30T07:29:31.447Z,32.43
2018-03-30T07:31:59.491Z,33.23
2018-03-30T07:34:27.539Z,16.07
2018-03-30T07:36:55.586Z,13.47
2018-03-30T07:39:23.661Z,10.87
2018-03-30T07:41:51.679Z,14.97
2018-03-30T07:44:19.724Z,17.03
2018-03-30T07:46:47.785Z,7.90
2018-03-30T07:49:15.815Z,8.70
2018-03-30T07:51:43.852Z,8.43
2018-03-30T07:54:11.894Z,7.57
2018-03-30T07:56:40.074Z,10.20
2018-03-30T07:59:08.119Z,16.03
2018-03-30T08:01:36.166Z,13.90
2018-03-30T08:04:04.217Z,23.10
2018-03-30T08:06:32.264Z,15.03
2018-03-30T08:09:01.063Z,11.30
2018-03-30T08:11:29.115Z,10.20
2018-03-30T08:13:57.151Z,10.50
2018-03-30T08:16:25.195Z,15.17
2018-03-30T08:18:53.264Z,83.73
2018-03-30T08:21:21.295Z,30.87
2018-03-30T08:23:49.344Z,25.30
2018-03-30T08:26:17.378Z,26.00
2018-03-30T08:28:45.411Z,18.67
2018-03-30T08:31:14.247Z,20.80
2018-03-30T08:33:42.295Z,12.47
2018-03-30T08:36:10.344Z,16.73
2018-03-30T08:38:38.380Z,20.10
2018-03-30T08:41:06.471Z,14.37
2018-03-30T08:43:34.507Z,28.43
2018-03-30T08:46:02.534Z,15.37
2018-03-30T08:48:31.392Z,10.47
2018-03-30T08:50:59.455Z,7.70
2018-03-30T08:53:27.497Z,10.67
2018-03-30T08:56:00.439Z,14.00
2018-03-30T08:58:28.492Z,20.00
2018-03-30T09:00:56.528Z,21.37
2018-03-30T09:03:24.572Z,31.47
2018-03-30T09:05:53.379Z,65.20
2018-03-30T09:08:21.402Z,8.03
2018-03-30T09:10:49.459Z,17.97
2018-03-30T09:13:17.491Z,50.30
2018-03-30T09:15:45.519Z,7.63
2018-03-30T09:18:13.564Z,8.00
2018-03-30T09:20:41.599Z,28.80
2018-03-30T09:23:10.752Z,7.17
2018-03-30T09:25:38.790Z,9.73
2018-03-30T09:28:06.823Z,6.10
2018-03-30T09:30:35.615Z,5.20
2018-03-30T09:33:03.683Z,5.97
2018-03-30T09:35:31.698Z,6.03
2018-03-30T09:37:59.739Z,6.73
2018-03-30T09:40:28.553Z,5.50
2018-03-30T09:42:56.625Z,6.67
2018-03-30T09:45:24.651Z,8.90
2018-03-30T09:47:52.710Z,6.97
2018-03-30T09:50:20.740Z,5.90
2018-03-30T09:52:48.765Z,6.63
2018-03-30T09:55:16.823Z,14.50
2018-03-30T09:57:44.863Z,18.80
2018-03-30T10:00:13.078Z,28.90
2018-03-30T10:02:41.127Z,22.40
2018-03-30T10:05:09.199Z,34.13
2018-03-30T10:07:37.235Z,35.40
2018-03-30T10:10:05.314Z,40.53
2018-03-30T10:12:33.344Z,21.83
2018-03-30T10:15:01.491Z,14.37
2018-03-30T10:17:29.564Z,11.03
2018-03-30T10:19:57.617Z,11.10
2018-03-30T10:22:25.657Z,26.50
2018-03-30T10:24:53.723Z,10.70
2018-03-30T10:27:22.541Z,26.43
2018-03-30T10:29:50.575Z,24.57
2018-03-30T10:32:18.642Z,83.43
2018-03-30T10:34:47.514Z,110.37
2018-03-30T10:37:15.515Z,53.40
2018-03-30T10:39:43.567Z,55.13
2018-03-30T10:42:13.667Z,101.67
2018-03-30T10:44:41.711Z,31.43
2018-03-30T10:47:09.779Z,82.33
2018-03-30T10:49:37.812Z,70.80
2018-03-30T10:52:06.651Z,33.50
2018-03-30T10:54:34.730Z,60.40
2018-03-30T10:57:02.795Z,55.67
2018-03-30T10:59:30.808Z,74.30
2018-03-30T11:01:59.000Z,45.63
2018-03-30T11:04:27.072Z,68.40
2018-03-30T11:06:55.075Z,57.23
2018-03-30T11:09:23.126Z,48.03
2018-03-30T11:11:51.167Z,85.17
2018-03-30T11:14:19.207Z,58.23
2018-03-30T11:16:47.272Z,70.57
2018-03-30T11:19:15.329Z,56.63
2018-03-30T11:21:43.427Z,52.03
2018-03-30T11:24:11.467Z,96.50
2018-03-30T11:26:39.563Z,109.27
2018-03-30T11:29:07.608Z,95.03
2018-03-30T11:31:35.723Z,97.13
2018-03-30T11:34:03.797Z,82.30
2018-03-30T11:36:31.858Z,64.83
2018-03-30T11:38:59.900Z,69.23
2018-03-30T11:41:29.586Z,88.10
2018-03-30T11:43:57.632Z,77.27
2018-03-30T11:46:25.688Z,59.43
2018-03-30T11:48:54.679Z,61.00
2018-03-30T11:51:22.723Z,32.87
2018-03-30T11:53:50.790Z,32.03
2018-03-30T11:56:18.875Z,63.57
2018-03-30T11:58:46.929Z,71.83
2018-03-30T12:01:16.912Z,55.60
2018-03-30T12:03:44.978Z,60.73
2018-03-30T12:06:13.012Z,30.43
2018-03-30T12:08:41.056Z,24.00
2018-03-30T12:11:10.111Z,49.03
2018-03-30T12:13:38.152Z,44.47
2018-03-30T12:16:06.195Z,39.90
2018-03-30T12:18:34.247Z,54.40
2018-03-30T12:21:03.059Z,46.47
2018-03-30T12:23:31.095Z,22.47
2018-03-30T12:25:59.147Z,26.83
2018-03-30T12:28:27.231Z,77.57
2018-03-30T12:30:55.291Z,68.27
2018-03-30T12:33:23.332Z,62.43
2018-03-30T12:35:51.376Z,38.27
2018-03-30T12:38:20.188Z,79.83
2018-03-30T12:40:48.274Z,31.17
2018-03-30T12:43:16.319Z,91.77
2018-03-30T12:45:45.255Z,33.30
2018-03-30T12:48:13.351Z,43.57
2018-03-30T12:50:41.352Z,18.57
2018-03-30T12:53:09.387Z,67.13
2018-03-30T12:55:37.443Z,27.40
2018-03-30T12:58:05.484Z,27.93
2018-03-30T13:00:33.696Z,22.63
2018-03-30T13:03:01.756Z,92.97
2018-03-30T13:05:29.795Z,28.27
2018-03-30T13:07:57.832Z,26.67
2018-03-30T13:10:26.643Z,71.73
2018-03-30T13:12:54.710Z,104.60
2018-03-30T13:15:22.751Z,63.13
2018-03-30T13:17:50.810Z,76.93
2018-03-30T13:20:18.859Z,122.33
2018-03-30T13:22:46.938Z,44.23
2018-03-30T13:25:14.963Z,42.53
2018-03-30T13:27:43.767Z,25.23
2018-03-30T13:30:12.704Z,52.77
2018-03-30T13:32:40.764Z,18.63
2018-03-30T13:35:08.800Z,36.00
2018-03-30T13:37:36.864Z,20.97
2018-03-30T13:40:05.668Z,16.10
2018-03-30T13:42:34.900Z,8.33
2018-03-30T13:45:02.935Z,10.43
2018-03-30T13:47:31.009Z,11.73
2018-03-30T13:49:59.047Z,12.63
2018-03-30T13:52:29.587Z,13.40
2018-03-30T13:54:59.091Z,10.70
2018-03-30T13:57:40.937Z,14.23
2018-03-30T14:00:10.774Z,72.93
2018-03-30T14:02:51.924Z,14.57
2018-03-30T14:05:19.992Z,38.47
2018-03-30T14:08:22.552Z,12.33
2018-03-30T14:10:53.027Z,22.00
2018-03-30T14:13:21.081Z,22.00
2018-03-30T14:15:59.226Z,12.60
2018-03-30T14:18:34.103Z,11.33
2018-03-30T14:21:11.008Z,8.00
2018-03-30T14:23:39.820Z,3.23
2018-03-30T14:26:13.607Z,3.70
2018-03-30T14:31:42.805Z,3.30
2018-03-30T14:34:12.673Z,2.63
2018-03-30T14:37:03.163Z,3.07
2018-03-30T14:39:36.824Z,3.30
2018-03-30T14:42:06.653Z,2.63
2018-03-30T14:44:37.130Z,3.33
2018-03-30T14:47:06.604Z,2.23
2018-03-30T14:49:35.328Z,2.97
2018-03-30T14:52:12.291Z,3.53
2018-03-30T14:54:57.947Z,3.50
2018-03-30T14:57:31.795Z,4.03
2018-03-30T15:00:21.500Z,3.17
2018-03-30T15:02:53.379Z,2.47
2018-03-30T15:05:26.864Z,3.27
2018-03-30T15:11:10.436Z,4.50
2018-03-30T15:13:40.950Z,3.90
2018-03-30T15:16:31.380Z,5.57
2018-03-30T15:19:01.987Z,3.83
2018-03-30T15:21:30.795Z,4.20
2018-03-30T15:23:59.760Z,4.00
2018-03-30T15:26:43.343Z,3.87
2018-03-30T15:29:20.967Z,4.60
2018-03-30T15:31:57.254Z,4.83
2018-03-30T15:34:29.783Z,3.20
2018-03-30T15:37:03.540Z,3.87
2018-03-30T15:39:31.583Z,3.67
2018-03-30T15:42:00.407Z,4.40
2018-03-30T15:44:32.307Z,3.43
2018-03-30T15:47:02.095Z,2.60
2018-03-30T15:49:30.131Z,2.20
2018-03-30T15:51:58.183Z,3.07
2018-03-30T15:54:26.524Z,1.77
2018-03-30T15:56:57.235Z,1.90
2018-03-30T15:59:25.287Z,1.70
2018-03-30T16:01:53.328Z,1.40
2018-03-30T16:04:21.370Z,2.07
2018-03-30T16:06:49.419Z,1.63
2018-03-30T16:09:32.332Z,1.50
2018-03-30T16:12:01.843Z,1.60
2018-03-30T16:14:29.878Z,1.50
2018-03-30T16:16:58.707Z,1.80
2018-03-30T16:19:26.252Z,2.17
2018-03-30T16:22:34.235Z,2.00
2018-03-30T16:25:01.779Z,1.67
2018-03-30T16:27:29.327Z,1.83
2018-03-30T16:29:56.956Z,1.80
2018-03-30T16:32:55.087Z,1.83
2018-03-30T16:35:22.664Z,1.30
2018-03-30T16:37:50.971Z,1.67
2018-03-30T16:40:18.528Z,2.10
2018-03-30T16:42:50.151Z,2.10
2018-03-30T16:45:17.691Z,2.40
2018-03-30T16:47:45.262Z,2.50
2018-03-30T16:50:12.811Z,2.47
2018-03-30T16:52:40.391Z,3.70
2018-03-30T16:55:08.707Z,3.93
2018-03-30T16:57:36.266Z,4.87
2018-03-30T17:00:03.807Z,4.50
2018-03-30T17:02:31.398Z,4.03
2018-03-30T17:04:58.965Z,3.87
2018-03-30T17:07:26.523Z,2.60
2018-03-30T17:09:54.087Z,2.70
2018-03-30T17:12:21.648Z,1.87
2018-03-30T17:14:49.216Z,2.10
2018-03-30T17:17:16.763Z,3.10
2018-03-30T17:19:44.452Z,2.60
2018-03-30T17:22:12.188Z,2.60
2018-03-30T17:24:39.735Z,2.70
2018-03-30T17:27:07.448Z,3.23
2018-03-30T17:29:35.040Z,2.67
2018-03-30T17:32:02.584Z,1.70
2018-03-30T17:34:30.126Z,1.47
2018-03-30T17:36:57.852Z,1.30
2018-03-30T17:39:27.516Z,1.00
2018-03-30T17:41:55.832Z,1.50
2018-03-30T17:44:23.407Z,1.00
2018-03-30T17:46:50.959Z,0.90
2018-03-30T17:49:19.472Z,1.03
2018-03-30T17:51:47.044Z,1.07
2018-03-30T17:54:14.588Z,0.90
2018-03-30T17:56:42.131Z,1.37
2018-03-30T17:59:09.695Z,1.40
2018-03-30T18:01:37.239Z,0.90
2018-03-30T18:04:04.791Z,0.97
2018-03-30T18:06:32.352Z,0.90
2018-03-30T18:08:59.955Z,0.87
2018-03-30T18:11:27.503Z,1.00
2018-03-30T18:13:55.056Z,0.80
2018-03-30T18:16:22.610Z,0.60
2018-03-30T18:18:50.142Z,0.90
2018-03-30T18:21:18.895Z,0.80
2018-03-30T18:23:46.527Z,1.20
2018-03-30T18:26:14.069Z,0.67
2018-03-30T18:28:41.623Z,1.03
2018-03-30T18:31:09.196Z,1.33
2018-03-30T18:33:36.788Z,1.20
2018-03-30T18:36:05.492Z,1.10
2018-03-30T18:38:33.036Z,1.20
2018-03-30T18:41:00.583Z,1.07
2018-03-30T18:43:29.090Z,1.50
2018-03-30T18:45:57.760Z,2.30
2018-03-30T18:48:28.299Z,1.70
2018-03-30T18:50:55.859Z,1.70
2018-03-30T18:53:24.171Z,1.40
2018-03-30T18:55:51.742Z,2.13
2018-03-30T18:58:19.331Z,1.83
2018-03-30T19:00:47.639Z,1.60
2018-03-30T19:03:15.186Z,1.77
2018-03-30T19:05:42.747Z,1.07
2018-03-30T19:08:11.357Z,0.90
2018-03-30T19:10:38.942Z,0.90
2018-03-30T19:13:08.396Z,1.00
2018-03-30T19:15:36.216Z,0.80
2018-03-30T19:18:03.759Z,0.93
2018-03-30T19:20:31.310Z,2.00
2018-03-30T19:22:58.871Z,2.83
2018-03-30T19:25:26.419Z,3.10
2018-03-30T19:27:54.738Z,2.30
2018-03-30T19:30:22.294Z,1.70
2018-03-30T19:32:49.835Z,2.37
2018-03-30T19:35:17.392Z,1.20
2018-03-30T19:37:44.979Z,1.20
2018-03-30T19:40:12.520Z,2.20
2018-03-30T19:42:40.064Z,2.10
2018-03-30T19:45:07.643Z,1.77
2018-03-30T19:47:35.183Z,1.20
2018-03-30T19:50:03.491Z,1.00
2018-03-30T19:52:31.051Z,1.10
2018-03-30T19:54:58.595Z,1.00
2018-03-30T19:57:26.318Z,0.90
2018-03-30T19:59:53.880Z,1.67
2018-03-30T20:02:21.415Z,1.40
2018-03-30T20:04:48.959Z,1.20
2018-03-30T20:07:16.531Z,1.17
2018-03-30T20:09:44.151Z,1.20
2018-03-30T20:12:11.634Z,1.00
2018-03-30T20:14:39.200Z,0.97
2018-03-30T20:17:06.745Z,1.40
2018-03-30T20:19:34.312Z,1.50
2018-03-30T20:22:01.867Z,1.30
2018-03-30T20:24:29.420Z,2.40
2018-03-30T20:26:56.983Z,1.70
2018-03-30T20:29:24.539Z,1.60
2018-03-30T20:31:52.087Z,1.23
2018-03-30T20:34:20.403Z,1.47
2018-03-30T20:36:47.970Z,0.83
2018-03-30T20:39:15.519Z,1.40
2018-03-30T20:41:43.067Z,1.20
2018-03-30T20:44:10.642Z,1.30
2018-03-30T20:46:38.183Z,1.10
2018-03-30T20:49:05.769Z,1.60
2018-03-30T20:51:34.100Z,2.13
2018-03-30T20:54:01.840Z,2.77
2018-03-30T20:56:29.378Z,2.47
2018-03-30T20:58:56.938Z,3.73
2018-03-30T21:01:24.488Z,5.50
2018-03-30T21:03:52.811Z,4.03
2018-03-30T21:06:21.145Z,4.13
2018-03-30T21:08:48.682Z,5.73
2018-03-30T21:11:16.249Z,5.50
2018-03-30T21:13:43.816Z,5.60
2018-03-30T21:16:11.375Z,6.10
2018-03-30T21:18:38.910Z,3.23
2018-03-30T21:21:06.507Z,3.47
2018-03-30T21:23:34.072Z,2.40
2018-03-30T21:26:01.644Z,1.80
2018-03-30T21:28:29.221Z,2.07
2018-03-30T21:30:56.763Z,3.70
2018-03-30T21:33:24.320Z,1.57
2018-03-30T21:35:52.143Z,1.70
2018-03-30T21:38:19.702Z,1.90
2018-03-30T21:40:47.262Z,1.70
2018-03-30T21:43:14.812Z,1.57
2018-03-30T21:45:43.132Z,2.87
2018-03-30T21:48:10.700Z,36.00
2018-03-30T21:50:38.276Z,15.67
2018-03-30T21:53:05.830Z,5.57
2018-03-30T21:55:33.368Z,3.23
2018-03-30T21:58:07.959Z,1.40
2018-03-30T22:00:35.511Z,1.50
2018-03-30T22:03:03.820Z,1.20
2018-03-30T22:05:31.385Z,1.00
2018-03-30T22:07:58.946Z,1.17
2018-03-30T22:10:26.496Z,1.17
2018-03-30T22:12:54.083Z,1.37
2018-03-30T22:15:21.631Z,1.57
2018-03-30T22:17:49.219Z,1.00
2018-03-30T22:20:16.793Z,1.27
2018-03-30T22:22:44.336Z,1.00
2018-03-30T22:25:11.888Z,1.13
2018-03-30T22:27:40.249Z,1.20
2018-03-30T22:30:07.740Z,1.23
2018-03-30T22:32:35.279Z,1.10
2018-03-30T22:35:02.843Z,1.30
2018-03-30T22:37:30.411Z,1.37
2018-03-30T22:39:57.955Z,1.20
2018-03-30T22:42:25.549Z,1.00
2018-03-30T22:44:53.111Z,1.40
2018-03-30T22:47:20.660Z,1.13
2018-03-30T22:49:48.220Z,1.83
2018-03-30T22:52:15.811Z,1.40
2018-03-30T22:54:48.473Z,1.30
2018-03-30T22:57:16.036Z,1.40
2018-03-30T22:59:43.583Z,1.90
2018-03-30T23:02:11.138Z,1.77
2018-03-30T23:04:38.696Z,2.07
2018-03-30T23:07:06.238Z,1.80
2018-03-30T23:09:33.796Z,1.47
2018-03-30T23:12:01.350Z,1.37
2018-03-30T23:14:28.901Z,1.40
2018-03-30T23:16:56.460Z,1.50
2018-03-30T23:19:24.020Z,1.47
2018-03-30T23:21:51.564Z,1.30
2018-03-30T23:24:19.131Z,1.40
2018-03-30T23:26:46.682Z,1.00
2018-03-30T23:29:14.223Z,1.27
2018-03-30T23:31:42.546Z,1.20
2018-03-30T23:34:10.098Z,1.00
2018-03-30T23:36:37.727Z,1.30
2018-03-30T23:39:05.292Z,1.47
2018-03-30T23:41:32.835Z,1.10
2018-03-30T23:44:01.157Z,1.57
2018-03-30T23:46:28.718Z,1.20
2018-03-30T23:48:56.260Z,1.00
2018-03-30T23:51:23.851Z,0.93
2018-03-30T23:53:51.444Z,1.10
2018-03-30T23:56:18.987Z,1.33
2018-03-30T23:58:46.539Z,1.00
